<?xml version="1.0" encoding="UTF-8" standalone="no" ?>
<gpx xmlns="http://www.topografix.com/GPX/1/1" xmlns:xsi="http://www.w3.org/2001/XMLSchema-instance" xsi:schemaLocation="http://www.topografix.com/GPX/1/1 http://www.topografix.com/GPX/1/1/gpx.xsd" version="1.1" creator="VisuGPX - https://www.visugpx.com">
  <metadata>
    <name>CDS j10</name>
    <desc><![CDATA[Chemin du soleil]]></desc>
  </metadata>
  <trk>
    <name><![CDATA[ACTIVE LOG113619]]></name>
    <trkseg>
      <trkpt lat="44.1113" lon="6.32309">
        <ele>1078</ele>
        <time>2011-08-18T09:36:18Z</time>
      </trkpt>
      <trkpt lat="44.11134" lon="6.32313">
        <ele>1078</ele>
        <time>2011-08-18T09:36:21Z</time>
      </trkpt>
      <trkpt lat="44.11139" lon="6.32315">
        <ele>1077</ele>
        <time>2011-08-18T09:36:23Z</time>
      </trkpt>
      <trkpt lat="44.11147" lon="6.3233">
        <ele>1076</ele>
        <time>2011-08-18T09:36:29Z</time>
      </trkpt>
      <trkpt lat="44.11156" lon="6.32362">
        <ele>1075</ele>
        <time>2011-08-18T09:36:40Z</time>
      </trkpt>
      <trkpt lat="44.1117" lon="6.3237">
        <ele>1071</ele>
        <time>2011-08-18T09:36:51Z</time>
      </trkpt>
      <trkpt lat="44.11176" lon="6.32377">
        <ele>1070</ele>
        <time>2011-08-18T09:37:02Z</time>
      </trkpt>
      <trkpt lat="44.11181" lon="6.32389">
        <ele>1070</ele>
        <time>2011-08-18T09:37:15Z</time>
      </trkpt>
      <trkpt lat="44.11185" lon="6.324">
        <ele>1069</ele>
        <time>2011-08-18T09:37:29Z</time>
      </trkpt>
      <trkpt lat="44.1119" lon="6.32408">
        <ele>1069</ele>
        <time>2011-08-18T09:37:34Z</time>
      </trkpt>
      <trkpt lat="44.11191" lon="6.32429">
        <ele>1059</ele>
        <time>2011-08-18T09:37:43Z</time>
      </trkpt>
      <trkpt lat="44.11188" lon="6.3244">
        <ele>1058</ele>
        <time>2011-08-18T09:37:47Z</time>
      </trkpt>
      <trkpt lat="44.11175" lon="6.32445">
        <ele>1058</ele>
        <time>2011-08-18T09:37:58Z</time>
      </trkpt>
      <trkpt lat="44.11169" lon="6.32445">
        <ele>1058</ele>
        <time>2011-08-18T09:38:11Z</time>
      </trkpt>
      <trkpt lat="44.11164" lon="6.32447">
        <ele>1062</ele>
        <time>2011-08-18T09:38:28Z</time>
      </trkpt>
      <trkpt lat="44.11163" lon="6.32448">
        <ele>1062</ele>
        <time>2011-08-18T09:38:29Z</time>
      </trkpt>
      <trkpt lat="44.11153" lon="6.32461">
        <ele>1060</ele>
        <time>2011-08-18T09:38:36Z</time>
      </trkpt>
      <trkpt lat="44.11157" lon="6.32476">
        <ele>1057</ele>
        <time>2011-08-18T09:38:41Z</time>
      </trkpt>
      <trkpt lat="44.11158" lon="6.32498">
        <ele>1052</ele>
        <time>2011-08-18T09:38:47Z</time>
      </trkpt>
      <trkpt lat="44.11138" lon="6.32509">
        <ele>1043</ele>
        <time>2011-08-18T09:38:57Z</time>
      </trkpt>
      <trkpt lat="44.11137" lon="6.32525">
        <ele>1042</ele>
        <time>2011-08-18T09:39:05Z</time>
      </trkpt>
      <trkpt lat="44.11138" lon="6.32534">
        <ele>1040</ele>
        <time>2011-08-18T09:39:08Z</time>
      </trkpt>
      <trkpt lat="44.11138" lon="6.3254">
        <ele>1040</ele>
        <time>2011-08-18T09:39:10Z</time>
      </trkpt>
      <trkpt lat="44.11147" lon="6.32559">
        <ele>1037</ele>
        <time>2011-08-18T09:39:20Z</time>
      </trkpt>
      <trkpt lat="44.1115" lon="6.32573">
        <ele>1034</ele>
        <time>2011-08-18T09:39:29Z</time>
      </trkpt>
      <trkpt lat="44.11147" lon="6.32579">
        <ele>1034</ele>
        <time>2011-08-18T09:39:36Z</time>
      </trkpt>
      <trkpt lat="44.11147" lon="6.32588">
        <ele>1026</ele>
        <time>2011-08-18T09:39:49Z</time>
      </trkpt>
      <trkpt lat="44.11151" lon="6.32588">
        <ele>1026</ele>
        <time>2011-08-18T09:40:05Z</time>
      </trkpt>
      <trkpt lat="44.11153" lon="6.32593">
        <ele>1026</ele>
        <time>2011-08-18T09:40:13Z</time>
      </trkpt>
      <trkpt lat="44.11154" lon="6.32599">
        <ele>1026</ele>
        <time>2011-08-18T09:40:29Z</time>
      </trkpt>
      <trkpt lat="44.11154" lon="6.32599">
        <ele>1026</ele>
        <time>2011-08-18T09:40:31Z</time>
      </trkpt>
      <trkpt lat="44.11159" lon="6.32617">
        <ele>1024</ele>
        <time>2011-08-18T09:40:41Z</time>
      </trkpt>
      <trkpt lat="44.11159" lon="6.3263">
        <ele>1022</ele>
        <time>2011-08-18T09:40:51Z</time>
      </trkpt>
      <trkpt lat="44.11155" lon="6.32632">
        <ele>1022</ele>
        <time>2011-08-18T09:40:54Z</time>
      </trkpt>
      <trkpt lat="44.11151" lon="6.32666">
        <ele>1018</ele>
        <time>2011-08-18T09:41:05Z</time>
      </trkpt>
      <trkpt lat="44.1116" lon="6.32691">
        <ele>1015</ele>
        <time>2011-08-18T09:41:12Z</time>
      </trkpt>
      <trkpt lat="44.11157" lon="6.32723">
        <ele>1014</ele>
        <time>2011-08-18T09:41:23Z</time>
      </trkpt>
      <trkpt lat="44.11154" lon="6.32728">
        <ele>1013</ele>
        <time>2011-08-18T09:41:25Z</time>
      </trkpt>
      <trkpt lat="44.1114" lon="6.3273">
        <ele>1015</ele>
        <time>2011-08-18T09:41:31Z</time>
      </trkpt>
      <trkpt lat="44.11131" lon="6.32728">
        <ele>1016</ele>
        <time>2011-08-18T09:41:41Z</time>
      </trkpt>
      <trkpt lat="44.11125" lon="6.32726">
        <ele>1017</ele>
        <time>2011-08-18T09:41:58Z</time>
      </trkpt>
      <trkpt lat="44.11123" lon="6.32719">
        <ele>1017</ele>
        <time>2011-08-18T09:42:13Z</time>
      </trkpt>
      <trkpt lat="44.11121" lon="6.32722">
        <ele>1017</ele>
        <time>2011-08-18T09:42:17Z</time>
      </trkpt>
      <trkpt lat="44.11121" lon="6.32726">
        <ele>1017</ele>
        <time>2011-08-18T09:42:23Z</time>
      </trkpt>
      <trkpt lat="44.1112" lon="6.32732">
        <ele>1018</ele>
        <time>2011-08-18T09:42:29Z</time>
      </trkpt>
      <trkpt lat="44.11119" lon="6.3274">
        <ele>1018</ele>
        <time>2011-08-18T09:42:36Z</time>
      </trkpt>
      <trkpt lat="44.11123" lon="6.32751">
        <ele>1018</ele>
        <time>2011-08-18T09:42:46Z</time>
      </trkpt>
      <trkpt lat="44.11126" lon="6.32759">
        <ele>1018</ele>
        <time>2011-08-18T09:42:51Z</time>
      </trkpt>
      <trkpt lat="44.11135" lon="6.32771">
        <ele>1017</ele>
        <time>2011-08-18T09:43:03Z</time>
      </trkpt>
      <trkpt lat="44.11136" lon="6.32778">
        <ele>1017</ele>
        <time>2011-08-18T09:43:14Z</time>
      </trkpt>
      <trkpt lat="44.11138" lon="6.32781">
        <ele>1017</ele>
        <time>2011-08-18T09:43:16Z</time>
      </trkpt>
      <trkpt lat="44.1115" lon="6.32784">
        <ele>1016</ele>
        <time>2011-08-18T09:43:26Z</time>
      </trkpt>
      <trkpt lat="44.11169" lon="6.32797">
        <ele>1006</ele>
        <time>2011-08-18T09:43:37Z</time>
      </trkpt>
      <trkpt lat="44.11177" lon="6.32811">
        <ele>1007</ele>
        <time>2011-08-18T09:43:43Z</time>
      </trkpt>
      <trkpt lat="44.11184" lon="6.32835">
        <ele>1009</ele>
        <time>2011-08-18T09:43:54Z</time>
      </trkpt>
      <trkpt lat="44.11187" lon="6.32868">
        <ele>1009</ele>
        <time>2011-08-18T09:44:05Z</time>
      </trkpt>
      <trkpt lat="44.11194" lon="6.32904">
        <ele>1011</ele>
        <time>2011-08-18T09:44:16Z</time>
      </trkpt>
      <trkpt lat="44.11199" lon="6.32938">
        <ele>1012</ele>
        <time>2011-08-18T09:44:25Z</time>
      </trkpt>
      <trkpt lat="44.11195" lon="6.32961">
        <ele>1013</ele>
        <time>2011-08-18T09:44:31Z</time>
      </trkpt>
      <trkpt lat="44.11194" lon="6.32975">
        <ele>1014</ele>
        <time>2011-08-18T09:44:37Z</time>
      </trkpt>
      <trkpt lat="44.11188" lon="6.32987">
        <ele>1015</ele>
        <time>2011-08-18T09:44:50Z</time>
      </trkpt>
      <trkpt lat="44.11189" lon="6.32989">
        <ele>1015</ele>
        <time>2011-08-18T09:44:59Z</time>
      </trkpt>
      <trkpt lat="44.11211" lon="6.33006">
        <ele>1018</ele>
        <time>2011-08-18T09:45:10Z</time>
      </trkpt>
      <trkpt lat="44.11219" lon="6.3301">
        <ele>1017</ele>
        <time>2011-08-18T09:45:14Z</time>
      </trkpt>
      <trkpt lat="44.11256" lon="6.33011">
        <ele>1008</ele>
        <time>2011-08-18T09:45:31Z</time>
      </trkpt>
      <trkpt lat="44.11295" lon="6.33018">
        <ele>1008</ele>
        <time>2011-08-18T09:45:44Z</time>
      </trkpt>
      <trkpt lat="44.11332" lon="6.33028">
        <ele>1007</ele>
        <time>2011-08-18T09:45:57Z</time>
      </trkpt>
      <trkpt lat="44.11357" lon="6.3304">
        <ele>1002</ele>
        <time>2011-08-18T09:46:04Z</time>
      </trkpt>
      <trkpt lat="44.11378" lon="6.33055">
        <ele>1002</ele>
        <time>2011-08-18T09:46:09Z</time>
      </trkpt>
      <trkpt lat="44.11413" lon="6.33084">
        <ele>1000</ele>
        <time>2011-08-18T09:46:20Z</time>
      </trkpt>
      <trkpt lat="44.11421" lon="6.33098">
        <ele>998</ele>
        <time>2011-08-18T09:46:23Z</time>
      </trkpt>
      <trkpt lat="44.11464" lon="6.33168">
        <ele>999</ele>
        <time>2011-08-18T09:46:39Z</time>
      </trkpt>
      <trkpt lat="44.11472" lon="6.33186">
        <ele>999</ele>
        <time>2011-08-18T09:46:43Z</time>
      </trkpt>
      <trkpt lat="44.11493" lon="6.33224">
        <ele>998</ele>
        <time>2011-08-18T09:46:53Z</time>
      </trkpt>
      <trkpt lat="44.11504" lon="6.33233">
        <ele>991</ele>
        <time>2011-08-18T09:46:57Z</time>
      </trkpt>
      <trkpt lat="44.1153" lon="6.33279">
        <ele>989</ele>
        <time>2011-08-18T09:47:09Z</time>
      </trkpt>
      <trkpt lat="44.11534" lon="6.33287">
        <ele>988</ele>
        <time>2011-08-18T09:47:11Z</time>
      </trkpt>
      <trkpt lat="44.11557" lon="6.33304">
        <ele>986</ele>
        <time>2011-08-18T09:47:19Z</time>
      </trkpt>
      <trkpt lat="44.11572" lon="6.33302">
        <ele>985</ele>
        <time>2011-08-18T09:47:26Z</time>
      </trkpt>
      <trkpt lat="44.116" lon="6.33306">
        <ele>977</ele>
        <time>2011-08-18T09:47:34Z</time>
      </trkpt>
      <trkpt lat="44.11621" lon="6.33294">
        <ele>975</ele>
        <time>2011-08-18T09:47:43Z</time>
      </trkpt>
      <trkpt lat="44.1163" lon="6.33288">
        <ele>975</ele>
        <time>2011-08-18T09:47:47Z</time>
      </trkpt>
      <trkpt lat="44.11637" lon="6.33279">
        <ele>974</ele>
        <time>2011-08-18T09:47:56Z</time>
      </trkpt>
      <trkpt lat="44.11638" lon="6.33284">
        <ele>974</ele>
        <time>2011-08-18T09:48:05Z</time>
      </trkpt>
      <trkpt lat="44.11637" lon="6.33289">
        <ele>974</ele>
        <time>2011-08-18T09:48:10Z</time>
      </trkpt>
      <trkpt lat="44.11635" lon="6.33299">
        <ele>974</ele>
        <time>2011-08-18T09:48:24Z</time>
      </trkpt>
      <trkpt lat="44.11635" lon="6.33299">
        <ele>974</ele>
        <time>2011-08-18T09:48:26Z</time>
      </trkpt>
      <trkpt lat="44.11638" lon="6.33302">
        <ele>974</ele>
        <time>2011-08-18T09:48:29Z</time>
      </trkpt>
      <trkpt lat="44.11654" lon="6.33308">
        <ele>973</ele>
        <time>2011-08-18T09:48:35Z</time>
      </trkpt>
      <trkpt lat="44.11667" lon="6.33309">
        <ele>967</ele>
        <time>2011-08-18T09:48:38Z</time>
      </trkpt>
      <trkpt lat="44.11696" lon="6.33335">
        <ele>970</ele>
        <time>2011-08-18T09:48:50Z</time>
      </trkpt>
      <trkpt lat="44.11699" lon="6.33336">
        <ele>970</ele>
        <time>2011-08-18T09:48:51Z</time>
      </trkpt>
      <trkpt lat="44.11722" lon="6.33333">
        <ele>968</ele>
        <time>2011-08-18T09:48:56Z</time>
      </trkpt>
      <trkpt lat="44.11742" lon="6.33342">
        <ele>965</ele>
        <time>2011-08-18T09:49:02Z</time>
      </trkpt>
      <trkpt lat="44.11759" lon="6.33344">
        <ele>960</ele>
        <time>2011-08-18T09:49:06Z</time>
      </trkpt>
      <trkpt lat="44.11796" lon="6.3334">
        <ele>957</ele>
        <time>2011-08-18T09:49:15Z</time>
      </trkpt>
      <trkpt lat="44.11835" lon="6.33332">
        <ele>950</ele>
        <time>2011-08-18T09:49:23Z</time>
      </trkpt>
      <trkpt lat="44.1185" lon="6.33322">
        <ele>947</ele>
        <time>2011-08-18T09:49:27Z</time>
      </trkpt>
      <trkpt lat="44.11869" lon="6.33337">
        <ele>948</ele>
        <time>2011-08-18T09:49:34Z</time>
      </trkpt>
      <trkpt lat="44.11887" lon="6.33347">
        <ele>947</ele>
        <time>2011-08-18T09:49:38Z</time>
      </trkpt>
      <trkpt lat="44.1191" lon="6.33355">
        <ele>946</ele>
        <time>2011-08-18T09:49:42Z</time>
      </trkpt>
      <trkpt lat="44.1196" lon="6.33403">
        <ele>941</ele>
        <time>2011-08-18T09:49:51Z</time>
      </trkpt>
      <trkpt lat="44.11976" lon="6.3342">
        <ele>943</ele>
        <time>2011-08-18T09:49:54Z</time>
      </trkpt>
      <trkpt lat="44.12009" lon="6.33433">
        <ele>944</ele>
        <time>2011-08-18T09:50:03Z</time>
      </trkpt>
      <trkpt lat="44.12036" lon="6.33437">
        <ele>946</ele>
        <time>2011-08-18T09:50:14Z</time>
      </trkpt>
      <trkpt lat="44.12069" lon="6.33437">
        <ele>947</ele>
        <time>2011-08-18T09:50:28Z</time>
      </trkpt>
      <trkpt lat="44.12095" lon="6.33439">
        <ele>953</ele>
        <time>2011-08-18T09:50:41Z</time>
      </trkpt>
      <trkpt lat="44.12102" lon="6.33443">
        <ele>954</ele>
        <time>2011-08-18T09:50:46Z</time>
      </trkpt>
      <trkpt lat="44.12107" lon="6.33419">
        <ele>953</ele>
        <time>2011-08-18T09:50:56Z</time>
      </trkpt>
      <trkpt lat="44.12117" lon="6.33407">
        <ele>948</ele>
        <time>2011-08-18T09:51:02Z</time>
      </trkpt>
      <trkpt lat="44.12135" lon="6.33398">
        <ele>949</ele>
        <time>2011-08-18T09:51:12Z</time>
      </trkpt>
      <trkpt lat="44.12163" lon="6.33411">
        <ele>955</ele>
        <time>2011-08-18T09:51:30Z</time>
      </trkpt>
      <trkpt lat="44.12185" lon="6.33414">
        <ele>954</ele>
        <time>2011-08-18T09:51:42Z</time>
      </trkpt>
      <trkpt lat="44.12225" lon="6.33428">
        <ele>963</ele>
        <time>2011-08-18T09:52:02Z</time>
      </trkpt>
      <trkpt lat="44.12258" lon="6.33437">
        <ele>964</ele>
        <time>2011-08-18T09:52:18Z</time>
      </trkpt>
      <trkpt lat="44.12281" lon="6.33429">
        <ele>965</ele>
        <time>2011-08-18T09:52:28Z</time>
      </trkpt>
      <trkpt lat="44.12321" lon="6.33422">
        <ele>963</ele>
        <time>2011-08-18T09:52:41Z</time>
      </trkpt>
      <trkpt lat="44.12358" lon="6.33405">
        <ele>955</ele>
        <time>2011-08-18T09:52:52Z</time>
      </trkpt>
      <trkpt lat="44.12369" lon="6.33404">
        <ele>954</ele>
        <time>2011-08-18T09:52:55Z</time>
      </trkpt>
      <trkpt lat="44.12392" lon="6.33417">
        <ele>964</ele>
        <time>2011-08-18T09:53:00Z</time>
      </trkpt>
      <trkpt lat="44.12436" lon="6.33441">
        <ele>964</ele>
        <time>2011-08-18T09:53:12Z</time>
      </trkpt>
      <trkpt lat="44.12444" lon="6.33445">
        <ele>965</ele>
        <time>2011-08-18T09:53:16Z</time>
      </trkpt>
      <trkpt lat="44.1245" lon="6.33455">
        <ele>965</ele>
        <time>2011-08-18T09:53:20Z</time>
      </trkpt>
      <trkpt lat="44.12459" lon="6.33483">
        <ele>965</ele>
        <time>2011-08-18T09:53:25Z</time>
      </trkpt>
      <trkpt lat="44.12466" lon="6.33505">
        <ele>968</ele>
        <time>2011-08-18T09:53:28Z</time>
      </trkpt>
      <trkpt lat="44.12509" lon="6.33561">
        <ele>963</ele>
        <time>2011-08-18T09:53:41Z</time>
      </trkpt>
      <trkpt lat="44.12517" lon="6.33571">
        <ele>964</ele>
        <time>2011-08-18T09:53:44Z</time>
      </trkpt>
      <trkpt lat="44.12526" lon="6.33578">
        <ele>963</ele>
        <time>2011-08-18T09:53:55Z</time>
      </trkpt>
      <trkpt lat="44.12528" lon="6.33581">
        <ele>963</ele>
        <time>2011-08-18T09:54:25Z</time>
      </trkpt>
      <trkpt lat="44.12542" lon="6.33577">
        <ele>962</ele>
        <time>2011-08-18T09:54:41Z</time>
      </trkpt>
      <trkpt lat="44.12543" lon="6.33577">
        <ele>962</ele>
        <time>2011-08-18T09:54:43Z</time>
      </trkpt>
      <trkpt lat="44.12574" lon="6.33583">
        <ele>960</ele>
        <time>2011-08-18T09:54:54Z</time>
      </trkpt>
      <trkpt lat="44.12618" lon="6.33606">
        <ele>961</ele>
        <time>2011-08-18T09:55:08Z</time>
      </trkpt>
      <trkpt lat="44.12649" lon="6.33641">
        <ele>961</ele>
        <time>2011-08-18T09:55:21Z</time>
      </trkpt>
      <trkpt lat="44.12666" lon="6.33658">
        <ele>961</ele>
        <time>2011-08-18T09:55:31Z</time>
      </trkpt>
      <trkpt lat="44.12678" lon="6.33667">
        <ele>961</ele>
        <time>2011-08-18T09:55:37Z</time>
      </trkpt>
      <trkpt lat="44.12695" lon="6.33705">
        <ele>963</ele>
        <time>2011-08-18T09:55:45Z</time>
      </trkpt>
      <trkpt lat="44.12695" lon="6.3374">
        <ele>966</ele>
        <time>2011-08-18T09:55:53Z</time>
      </trkpt>
      <trkpt lat="44.12703" lon="6.33748">
        <ele>966</ele>
        <time>2011-08-18T09:56:02Z</time>
      </trkpt>
      <trkpt lat="44.12719" lon="6.33738">
        <ele>965</ele>
        <time>2011-08-18T09:56:18Z</time>
      </trkpt>
      <trkpt lat="44.12724" lon="6.33732">
        <ele>964</ele>
        <time>2011-08-18T09:56:36Z</time>
      </trkpt>
      <trkpt lat="44.12734" lon="6.33728">
        <ele>964</ele>
        <time>2011-08-18T09:56:46Z</time>
      </trkpt>
      <trkpt lat="44.12751" lon="6.33724">
        <ele>966</ele>
        <time>2011-08-18T09:57:03Z</time>
      </trkpt>
      <trkpt lat="44.12758" lon="6.33724">
        <ele>967</ele>
        <time>2011-08-18T09:57:08Z</time>
      </trkpt>
      <trkpt lat="44.12773" lon="6.33718">
        <ele>967</ele>
        <time>2011-08-18T09:57:16Z</time>
      </trkpt>
      <trkpt lat="44.12782" lon="6.33714">
        <ele>967</ele>
        <time>2011-08-18T09:57:22Z</time>
      </trkpt>
      <trkpt lat="44.128" lon="6.33701">
        <ele>968</ele>
        <time>2011-08-18T09:57:34Z</time>
      </trkpt>
      <trkpt lat="44.12815" lon="6.3369">
        <ele>968</ele>
        <time>2011-08-18T09:57:45Z</time>
      </trkpt>
      <trkpt lat="44.12835" lon="6.33675">
        <ele>970</ele>
        <time>2011-08-18T09:58:00Z</time>
      </trkpt>
      <trkpt lat="44.12851" lon="6.33662">
        <ele>964</ele>
        <time>2011-08-18T09:58:12Z</time>
      </trkpt>
      <trkpt lat="44.12877" lon="6.33638">
        <ele>964</ele>
        <time>2011-08-18T09:58:33Z</time>
      </trkpt>
      <trkpt lat="44.12885" lon="6.33635">
        <ele>964</ele>
        <time>2011-08-18T09:58:41Z</time>
      </trkpt>
      <trkpt lat="44.12888" lon="6.33636">
        <ele>964</ele>
        <time>2011-08-18T09:58:44Z</time>
      </trkpt>
      <trkpt lat="44.12914" lon="6.33656">
        <ele>973</ele>
        <time>2011-08-18T09:58:59Z</time>
      </trkpt>
      <trkpt lat="44.12919" lon="6.33663">
        <ele>978</ele>
        <time>2011-08-18T09:59:01Z</time>
      </trkpt>
      <trkpt lat="44.12938" lon="6.33646">
        <ele>974</ele>
        <time>2011-08-18T09:59:11Z</time>
      </trkpt>
      <trkpt lat="44.12962" lon="6.33616">
        <ele>971</ele>
        <time>2011-08-18T09:59:22Z</time>
      </trkpt>
      <trkpt lat="44.12975" lon="6.3361">
        <ele>971</ele>
        <time>2011-08-18T09:59:26Z</time>
      </trkpt>
      <trkpt lat="44.12991" lon="6.33612">
        <ele>972</ele>
        <time>2011-08-18T09:59:31Z</time>
      </trkpt>
      <trkpt lat="44.13008" lon="6.33614">
        <ele>972</ele>
        <time>2011-08-18T09:59:37Z</time>
      </trkpt>
      <trkpt lat="44.13022" lon="6.33612">
        <ele>972</ele>
        <time>2011-08-18T09:59:41Z</time>
      </trkpt>
      <trkpt lat="44.1305" lon="6.3363">
        <ele>972</ele>
        <time>2011-08-18T09:59:47Z</time>
      </trkpt>
      <trkpt lat="44.13068" lon="6.33647">
        <ele>971</ele>
        <time>2011-08-18T09:59:50Z</time>
      </trkpt>
      <trkpt lat="44.13099" lon="6.33651">
        <ele>967</ele>
        <time>2011-08-18T09:59:56Z</time>
      </trkpt>
      <trkpt lat="44.13107" lon="6.33647">
        <ele>967</ele>
        <time>2011-08-18T09:59:58Z</time>
      </trkpt>
      <trkpt lat="44.13133" lon="6.33655">
        <ele>965</ele>
        <time>2011-08-18T10:00:04Z</time>
      </trkpt>
      <trkpt lat="44.13167" lon="6.33685">
        <ele>962</ele>
        <time>2011-08-18T10:00:10Z</time>
      </trkpt>
      <trkpt lat="44.13205" lon="6.33704">
        <ele>961</ele>
        <time>2011-08-18T10:00:15Z</time>
      </trkpt>
      <trkpt lat="44.13246" lon="6.33698">
        <ele>958</ele>
        <time>2011-08-18T10:00:20Z</time>
      </trkpt>
      <trkpt lat="44.1328" lon="6.33689">
        <ele>951</ele>
        <time>2011-08-18T10:00:24Z</time>
      </trkpt>
      <trkpt lat="44.13366" lon="6.33689">
        <ele>941</ele>
        <time>2011-08-18T10:00:35Z</time>
      </trkpt>
      <trkpt lat="44.13373" lon="6.33689">
        <ele>941</ele>
        <time>2011-08-18T10:00:36Z</time>
      </trkpt>
      <trkpt lat="44.13421" lon="6.33691">
        <ele>932</ele>
        <time>2011-08-18T10:00:45Z</time>
      </trkpt>
      <trkpt lat="44.13423" lon="6.33699">
        <ele>932</ele>
        <time>2011-08-18T10:00:49Z</time>
      </trkpt>
      <trkpt lat="44.13428" lon="6.33764">
        <ele>928</ele>
        <time>2011-08-18T10:01:07Z</time>
      </trkpt>
      <trkpt lat="44.1341" lon="6.33809">
        <ele>932</ele>
        <time>2011-08-18T10:01:19Z</time>
      </trkpt>
      <trkpt lat="44.13381" lon="6.33845">
        <ele>921</ele>
        <time>2011-08-18T10:01:30Z</time>
      </trkpt>
      <trkpt lat="44.1336" lon="6.33883">
        <ele>918</ele>
        <time>2011-08-18T10:01:42Z</time>
      </trkpt>
      <trkpt lat="44.13357" lon="6.33899">
        <ele>916</ele>
        <time>2011-08-18T10:01:47Z</time>
      </trkpt>
      <trkpt lat="44.13344" lon="6.33917">
        <ele>907</ele>
        <time>2011-08-18T10:01:51Z</time>
      </trkpt>
      <trkpt lat="44.13324" lon="6.33934">
        <ele>912</ele>
        <time>2011-08-18T10:01:56Z</time>
      </trkpt>
      <trkpt lat="44.13307" lon="6.33962">
        <ele>910</ele>
        <time>2011-08-18T10:02:04Z</time>
      </trkpt>
      <trkpt lat="44.13284" lon="6.33994">
        <ele>910</ele>
        <time>2011-08-18T10:02:12Z</time>
      </trkpt>
      <trkpt lat="44.13269" lon="6.34037">
        <ele>894</ele>
        <time>2011-08-18T10:02:22Z</time>
      </trkpt>
      <trkpt lat="44.13267" lon="6.34058">
        <ele>891</ele>
        <time>2011-08-18T10:02:26Z</time>
      </trkpt>
      <trkpt lat="44.13263" lon="6.34092">
        <ele>882</ele>
        <time>2011-08-18T10:02:34Z</time>
      </trkpt>
      <trkpt lat="44.13255" lon="6.34128">
        <ele>877</ele>
        <time>2011-08-18T10:02:40Z</time>
      </trkpt>
      <trkpt lat="44.13248" lon="6.3416">
        <ele>879</ele>
        <time>2011-08-18T10:02:47Z</time>
      </trkpt>
      <trkpt lat="44.13259" lon="6.34164">
        <ele>874</ele>
        <time>2011-08-18T10:02:52Z</time>
      </trkpt>
      <trkpt lat="44.13276" lon="6.3416">
        <ele>874</ele>
        <time>2011-08-18T10:02:57Z</time>
      </trkpt>
      <trkpt lat="44.1329" lon="6.34155">
        <ele>874</ele>
        <time>2011-08-18T10:03:00Z</time>
      </trkpt>
      <trkpt lat="44.13315" lon="6.34162">
        <ele>871</ele>
        <time>2011-08-18T10:03:05Z</time>
      </trkpt>
      <trkpt lat="44.13332" lon="6.34165">
        <ele>867</ele>
        <time>2011-08-18T10:03:08Z</time>
      </trkpt>
      <trkpt lat="44.13347" lon="6.3418">
        <ele>864</ele>
        <time>2011-08-18T10:03:13Z</time>
      </trkpt>
      <trkpt lat="44.13352" lon="6.34196">
        <ele>864</ele>
        <time>2011-08-18T10:03:16Z</time>
      </trkpt>
      <trkpt lat="44.13365" lon="6.34213">
        <ele>864</ele>
        <time>2011-08-18T10:03:21Z</time>
      </trkpt>
      <trkpt lat="44.13407" lon="6.34233">
        <ele>864</ele>
        <time>2011-08-18T10:03:38Z</time>
      </trkpt>
      <trkpt lat="44.13422" lon="6.34241">
        <ele>863</ele>
        <time>2011-08-18T10:03:46Z</time>
      </trkpt>
      <trkpt lat="44.13427" lon="6.34241">
        <ele>863</ele>
        <time>2011-08-18T10:04:02Z</time>
      </trkpt>
      <trkpt lat="44.13426" lon="6.34242">
        <ele>863</ele>
        <time>2011-08-18T10:04:26Z</time>
      </trkpt>
      <trkpt lat="44.13428" lon="6.34247">
        <ele>863</ele>
        <time>2011-08-18T10:04:30Z</time>
      </trkpt>
      <trkpt lat="44.13454" lon="6.3427">
        <ele>867</ele>
        <time>2011-08-18T10:04:45Z</time>
      </trkpt>
      <trkpt lat="44.13447" lon="6.34291">
        <ele>867</ele>
        <time>2011-08-18T10:04:58Z</time>
      </trkpt>
      <trkpt lat="44.13445" lon="6.34292">
        <ele>867</ele>
        <time>2011-08-18T10:05:49Z</time>
      </trkpt>
      <trkpt lat="44.13445" lon="6.34292">
        <ele>867</ele>
        <time>2011-08-18T10:06:18Z</time>
      </trkpt>
    </trkseg>
  </trk>
</gpx>